This is the latest recevied weather packets stored in our database for station/object GW1492. If no packets are shown the sender has not sent any weather packets the latest 10 day(s).
| Time | Temp. | Humidity | Pressure | Rain* | Wind** | Luminosity | Snow |
|---|---|---|---|---|---|---|---|
| 1777533164 | 10° C | 94% | 1013.5 hPa | 0 mm | - | - | - |
| 1777529177 | 9.44° C | 94% | 1014.9 hPa | 0 mm | - | - | - |
| 1777525575 | 10° C | 93% | 1014.9 hPa | 0 mm | - | - | - |
| 1777523807 | 10.56° C | 93% | 1014.9 hPa | 0 mm | - | - | - |
| 1777522339 | 10.56° C | 92% | 1014.9 hPa | 0 mm | - | - | - |
| 1777519854 | 11.11° C | 91% | 1015.2 hPa | 0 mm | - | - | - |
| 1777518740 | 11.11° C | 90% | 1014.9 hPa | 0 mm | - | - | - |
| 1777518380 | 11.11° C | 90% | 1014.9 hPa | 0 mm | - | - | - |
| 1777515869 | 12.78° C | 86% | 1015.5 hPa | 0 mm | - | - | - |
| 1777515498 | 12.78° C | 86% | 1015.2 hPa | 0 mm | - | - | - |
| 1777515131 | 13.33° C | 85% | 1014.9 hPa | 0 mm | - | - | - |
| 1777512973 | 14.44° C | 81% | 1014.5 hPa | 0 mm | - | - | - |
| 1777507957 | 16.67° C | 84% | 1013.2 hPa | 0 mm | - | - | - |
| 1777507230 | 16.67° C | 86% | 1013.2 hPa | 0 mm | - | - | - |
| 1777506139 | 16.67° C | 84% | 1012.8 hPa | 0 mm | - | - | - |
| 1777500023 | 18.33° C | 84% | 1011.8 hPa | 0 mm | - | - | - |
| 1777497889 | 17.78° C | 89% | 1011.8 hPa | 0 mm | - | - | - |
| 1777492106 | 18.89° C | 83% | 1011.8 hPa | 0 mm | - | - | - |
| 1777491380 | 18.89° C | 85% | 1012.1 hPa | 0 mm | - | - | - |
| 1777485267 | 21.67° C | 77% | 1012.5 hPa | 0 mm | - | - | - |
| 1777481668 | 17.78° C | 87% | 1013.2 hPa | 0 mm | - | - | - |
| 1777480578 | 17.78° C | 89% | 1013.5 hPa | 0 mm | - | - | - |
| 1777480229 | 17.22° C | 91% | 1013.5 hPa | 0 mm | - | - | - |
| 1777477711 | 16.67° C | 91% | 1014.2 hPa | 0 mm | - | - | - |
| 1777476262 | 16.67° C | 91% | 1014.5 hPa | 0 mm | - | - | - |
* Rain since midnight (hover to see other rain measurements)
** Current wind speed in m/s (hover to see current wind gust speed)